createdAt,value
2023-05-07T00:01:51.150Z,14.2
2023-05-07T00:08:11.170Z,14.14
2023-05-07T00:14:34.292Z,14.04
2023-05-07T00:20:54.186Z,13.94
2023-05-07T00:27:17.198Z,13.92
2023-05-07T00:33:37.327Z,13.93
2023-05-07T00:40:00.228Z,13.92
2023-05-07T00:46:20.319Z,13.91
2023-05-07T00:52:43.352Z,13.9
2023-05-07T00:59:03.281Z,13.89
2023-05-07T01:05:26.234Z,13.9
2023-05-07T01:11:46.332Z,13.91
2023-05-07T01:18:09.221Z,13.92
2023-05-07T01:24:29.147Z,13.94
2023-05-07T01:30:52.182Z,13.95
2023-05-07T01:37:12.148Z,13.99
2023-05-07T01:43:35.172Z,14.03
2023-05-07T01:49:55.261Z,14.02
2023-05-07T01:56:18.264Z,13.95
2023-05-07T02:02:38.227Z,13.92
2023-05-07T02:09:01.220Z,13.9
2023-05-07T02:15:21.164Z,13.87
2023-05-07T02:21:44.171Z,13.83
2023-05-07T02:28:04.368Z,13.8
2023-05-07T02:34:27.332Z,13.8
2023-05-07T02:40:47.156Z,13.81
2023-05-07T02:47:10.295Z,13.79
2023-05-07T02:53:30.151Z,13.8
2023-05-07T02:59:53.244Z,13.78
2023-05-07T03:06:13.234Z,13.72
2023-05-07T03:12:36.301Z,13.69
2023-05-07T03:28:43.107Z,13.61
2023-05-07T03:35:03.144Z,13.58
2023-05-07T03:41:26.258Z,13.51
2023-05-07T03:47:46.290Z,13.46
2023-05-07T03:54:09.305Z,13.46
2023-05-07T04:00:29.165Z,13.48
2023-05-07T04:06:52.279Z,13.5
2023-05-07T04:13:12.289Z,13.54
2023-05-07T04:19:35.210Z,13.57
2023-05-07T04:25:55.444Z,13.62
2023-05-07T04:32:18.263Z,13.69
2023-05-07T04:38:38.167Z,13.73
2023-05-07T04:45:01.222Z,13.77
2023-05-07T04:51:21.166Z,13.77
2023-05-07T04:57:44.147Z,13.76
2023-05-07T05:04:04.371Z,13.78
2023-05-07T05:10:27.228Z,13.85
2023-05-07T05:16:47.245Z,13.9
2023-05-07T05:23:10.381Z,13.94
2023-05-07T05:29:30.180Z,13.99
2023-05-07T05:35:53.289Z,14.12
2023-05-07T05:42:13.209Z,14.3
2023-05-07T05:48:36.237Z,14.47
2023-05-07T05:54:56.277Z,14.65
2023-05-07T06:01:19.272Z,14.78
2023-05-07T06:07:39.255Z,14.86
2023-05-07T06:14:02.178Z,14.94
2023-05-07T06:20:22.797Z,15.03
2023-05-07T06:26:45.203Z,15.23
2023-05-07T06:33:05.317Z,15.46
2023-05-07T06:39:28.381Z,15.73
2023-05-07T06:45:48.232Z,15.95
2023-05-07T06:52:11.183Z,16.15
2023-05-07T06:58:31.312Z,16.37
2023-05-07T07:04:54.223Z,16.6
2023-05-07T07:11:14.205Z,16.76
2023-05-07T07:17:37.388Z,16.84
2023-05-07T07:23:57.205Z,16.97
2023-05-07T07:30:20.178Z,17.12
2023-05-07T07:36:45.940Z,17.29
2023-05-07T07:43:03.274Z,17.49
2023-05-07T07:49:23.190Z,17.62
2023-05-07T07:55:46.179Z,17.72
2023-05-07T08:02:06.209Z,17.87
2023-05-07T08:08:29.246Z,18.04
2023-05-07T08:14:49.349Z,18.22
2023-05-07T08:21:12.217Z,18.33
2023-05-07T08:27:32.220Z,18.52
2023-05-07T08:43:25.185Z,19.16
2023-05-07T08:49:45.164Z,19.5
2023-05-07T08:56:08.175Z,19.8
2023-05-07T09:02:28.444Z,20.13
2023-05-07T09:08:51.158Z,20.43
2023-05-07T09:15:11.415Z,20.66
2023-05-07T09:21:34.208Z,20.63
2023-05-07T09:27:54.179Z,20.66
2023-05-07T09:34:17.220Z,21
2023-05-07T09:40:37.277Z,21.32
2023-05-07T09:47:00.219Z,21.52
2023-05-07T09:53:20.184Z,21.74
2023-05-07T09:59:43.194Z,21.85
2023-05-07T10:06:03.224Z,21.99
2023-05-07T10:12:26.201Z,22.09
2023-05-07T10:18:46.304Z,22.16
2023-05-07T10:25:09.302Z,22.33
2023-05-07T10:31:29.211Z,22.5
2023-05-07T10:37:52.211Z,22.67
2023-05-07T10:44:12.161Z,22.8
2023-05-07T10:50:35.183Z,23.17
2023-05-07T10:56:55.314Z,23.53
2023-05-07T11:03:18.168Z,23.95
2023-05-07T11:09:38.188Z,24.14
2023-05-07T11:16:01.299Z,24.12
2023-05-07T11:22:21.163Z,24.16
2023-05-07T11:28:44.191Z,24.22
2023-05-07T11:35:04.276Z,24.02
2023-05-07T11:41:27.213Z,23.86
2023-05-07T11:47:47.177Z,24.15
2023-05-07T11:54:10.245Z,24.65
2023-05-07T12:00:30.172Z,24.84
2023-05-07T12:06:56.159Z,24.8
2023-05-07T12:13:16.288Z,24.56
2023-05-07T22:20:10.400Z,15.4
2023-05-07T22:26:30.224Z,15.41
2023-05-07T22:32:53.237Z,15.41
2023-05-07T22:39:13.196Z,15.41
2023-05-07T22:45:36.240Z,15.44
2023-05-07T22:51:56.214Z,15.45
2023-05-07T22:58:19.199Z,15.42
2023-05-07T23:04:39.148Z,15.36
2023-05-07T23:11:02.154Z,15.34
2023-05-07T23:17:22.220Z,15.33
2023-05-07T23:23:45.161Z,15.3
2023-05-07T23:30:05.218Z,15.32
2023-05-07T23:36:28.194Z,15.33
2023-05-07T23:42:48.157Z,15.32
2023-05-07T23:49:11.209Z,15.3
2023-05-07T23:55:31.206Z,15.28
